ADDS METAR Data INFO
IDs: Format: Raw Decoded Include TAF

Data at: 0937 UTC 25 Nov 2017

KCXO 250853Z AUTO 00000KT 7SM CLR 06/06 A2994 RMK AO2 SLP137 T00560056 53005
KCXO 250753Z AUTO 00000KT 8SM CLR 06/06 A2993 RMK AO2 SLP133 T00610061
KCXO 250653Z AUTO 00000KT 8SM CLR 07/06 A2993 RMK AO2 SLP132 T00670061
KCXO 250553Z AUTO 00000KT 8SM CLR 07/07 A2992 RMK AO2 SLP131 T00720072 10133 20072 402220011 50001
KCXO 250453Z AUTO 00000KT 10SM CLR 08/08 A2993 RMK AO2 SLP133 T00830078
KCXO 250353Z AUTO 00000KT 10SM CLR 09/08 A2993 RMK AO2 SLP134 T00940083
KCXO 250253Z AUTO 00000KT 10SM CLR 11/08 A2992 RMK AO2 SLP130 T01110083 53003
KCXO 250153Z 15006KT 10SM CLR 12/08 A2991 RMK AO2 SLP130 T01220078
KCXO 250053Z 15006KT 10SM CLR 12/07 A2990 RMK AO2 SLP126 T01170067
KCXO 242353Z 00000KT 10SM CLR 13/07 A2991 RMK AO2 SLP128 T01280072 10222 20122 55007
KCXO 242253Z 17006KT 10SM CLR 20/03 A2990 RMK AO2 SLP125 T02000033
KCXO 242153Z 18008KT 10SM CLR 22/03 A2992 RMK AO2 SLP129 T02170028
KCXO 242053Z 17009KT 10SM CLR 22/03 A2993 RMK AO2 SLP134 T02170028 56028
KCXO 241953Z 18005KT 10SM CLR 21/03 A2995 RMK AO2 SLP141 T02110028
KCXO 241853Z 17006KT 10SM CLR 21/03 A2998 RMK AO2 SLP151 T02060028
KCXO 241753Z 20005KT 10SM CLR 19/04 A3002 RMK AO2 SLP163 T01940039 10194 20011 58014
KCXO 241653Z 22005KT 10SM CLR 17/06 A3003 RMK AO2 SLP169 T01720061
KCXO 241553Z 20008KT 10SM CLR 15/06 A3005 RMK AO2 SLP175 T01500061
KCXO 241453Z 00000KT 10SM CLR 11/08 A3006 RMK AO2 SLP178 T01060078 51009
KCXO 241353Z 00000KT 5SM BR CLR 04/03 A3005 RMK AO2 SLP176 T00390033
KCXO 241253Z 00000KT 4SM BR CLR 01/01 A3004 RMK AO2 SLP171 T00110011
KCXO 241153Z 00000KT 6SM BR CLR 02/02 A3003 RMK AO2 SLP169 I6000 T00170017 10033 20011 55005
KCXO 241053Z AUTO 00000KT 5SM BR CLR 02/02 A3003 RMK AO2 SLP167 I1000 T00170017
KCXO 240953Z AUTO 00000KT 5SM BR CLR 02/02 A3003 RMK AO2 SLP169 T00170017
KCXO 240853Z AUTO 00000KT 7SM CLR 02/02 A3004 RMK AO2 SLP173 T00220022 56010
KCXO 240753Z AUTO 00000KT 8SM CLR 03/02 A3005 RMK AO2 SLP175 T00280022
KCXO 240653Z AUTO 00000KT 8SM CLR 03/03 A3007 RMK AO2 SLP180 T00330028
KCXO 240553Z AUTO 00000KT 10SM CLR 03/03 A3008 RMK AO2 SLP183 T00330028 10100 20033 401890011 58008
KCXO 240453Z AUTO 00000KT 10SM CLR 04/04 A3009 RMK AO2 SLP189 T00390039
KCXO 240353Z AUTO 00000KT 10SM CLR 04/04 A3010 RMK AO2 SLP193 T00440039
KCXO 240253Z AUTO 00000KT 10SM CLR 05/05 A3010 RMK AO2 SLP192 T00500050 51006
KCXO 240153Z 00000KT 10SM CLR 07/06 A3009 RMK AO2 SLP190 T00670061
KCXO 240053Z 00000KT 10SM CLR 08/07 A3009 RMK AO2 SLP189 T00780067
KCXO 232353Z 00000KT 10SM CLR 09/07 A3008 RMK AO2 SLP186 T00940067 10189 20094 55003
KCXO 232253Z 00000KT 10SM CLR 17/04 A3008 RMK AO2 SLP184 T01670039
KCXO 232153Z 31003KT 10SM CLR 18/M02 A3008 RMK AO2 SLP185 T01831017